Main page
METAR-TAF:

METAR-TAF

Airports :

Crystal River Airport

Crystal River, Florida, United States

latitude: 28-52-02N, longitude: 082-34-17W, elevation: 10 ft

Current weather observation

The report was made 23 minutes ago, at 11:35 UTC
Wind 6 mph from the North/Northeast
Temperature 72°F
Humidity 88%
Pressure 30.07 in. Hg
Visibility: 10 miles
Broken clouds at a height of 4300 ft
Overcast at a height of 5000 ft

METAR: KCGC 211135Z AUTO 03005KT 10SM BKN043 OVC050 22/20 A3007 RMK AO2

Time: 07:58 (11:58 UTC)


TAF: missing

Weather observations and forecasts of more than 4000 airports (METAR and TAF reports).

The available stations are represented by yellow and red dots on the map.

Hover mouse over dot to see the name of the station.

Then click to see weather observations and forecasts.

To change the map : click on the green buttons with a black cross to zoom in, on the green button with a dash to zoom out, or on the green arrows for adjacent maps.


METAR-TAF: